Time;durP1;ratioP1;P1;durP2;ratioP2;P2;SDS_P1;SDS_P2;PMS_P1;PMS_P2;Temp;Humidity;BMP_temperature;BMP_pressure;BME280_temperature;BME280_humidity;BME280_pressure;Samples;Min_cycle;Max_cycle;Signal;HPM_P1;HPM_P2
2021/07/01 00:00:20;;;;;;;1.77;0.47;;;16.60;69.50;;;;;;5092233;28;20583;-78
2021/07/01 00:02:46;;;;;;;0.70;0.40;;;16.60;69.70;;;;;;5092247;28;20103;-77
2021/07/01 00:05:14;;;;;;;2.72;0.52;;;16.60;69.90;;;;;;5090671;28;20490;-77
2021/07/01 00:07:41;;;;;;;0.77;0.50;;;16.60;70.10;;;;;;5090064;28;20111;-76
2021/07/01 00:10:10;;;;;;;0.50;0.43;;;16.70;70.40;;;;;;5090944;28;20496;-76
2021/07/01 00:12:37;;;;;;;0.75;0.50;;;16.60;70.30;;;;;;5081517;28;20021;-77
2021/07/01 00:15:10;;;;;;;0.22;0.22;;;16.70;70.10;;;;;;5071937;28;20043;-76
2021/07/01 00:17:36;;;;;;;0.50;0.50;;;16.70;69.80;;;;;;5072001;28;20021;-77
2021/07/01 00:20:04;;;;;;;0.50;0.50;;;16.70;69.70;;;;;;5071733;28;20040;-77
2021/07/01 00:22:30;;;;;;;0.65;0.40;;;16.70;69.60;;;;;;5071740;28;20048;-77
2021/07/01 00:24:55;;;;;;;0.50;0.38;;;16.70;69.40;;;;;;5071833;28;20047;-76
2021/07/01 00:27:21;;;;;;;0.40;0.40;;;16.70;69.40;;;;;;5086649;28;20358;-77
2021/07/01 00:29:47;;;;;;;0.52;0.35;;;16.70;69.30;;;;;;5092025;28;20525;-77
2021/07/01 00:32:13;;;;;;;0.60;0.60;;;16.60;69.10;;;;;;5086671;28;20029;-76
2021/07/01 00:34:38;;;;;;;1.58;0.90;;;16.60;69.20;;;;;;5086185;28;20157;-76
2021/07/01 00:37:04;;;;;;;0.32;0.30;;;16.60;69.40;;;;;;5088857;28;20028;-76
2021/07/01 00:39:30;;;;;;;0.88;0.45;;;16.50;69.20;;;;;;5091967;28;20032;-77
2021/07/01 00:41:56;;;;;;;2.47;0.30;;;16.50;69.40;;;;;;5091951;28;20411;-77
2021/07/01 00:44:22;;;;;;;3.80;0.60;;;16.50;69.70;;;;;;5091751;28;20028;-78
2021/07/01 00:46:48;;;;;;;2.00;0.60;;;16.50;70.20;;;;;;5072702;28;20056;-76
2021/07/01 00:49:14;;;;;;;1.63;0.57;;;16.50;70.80;;;;;;5070360;28;20025;-77
2021/07/01 00:51:40;;;;;;;0.45;0.35;;;16.60;71.40;;;;;;5071364;28;20444;-77
2021/07/01 00:54:07;;;;;;;0.88;0.47;;;16.70;71.30;;;;;;5071758;28;20016;-77
2021/07/01 00:56:38;;;;;;;1.23;0.70;;;16.70;70.70;;;;;;5079179;28;20496;-77
2021/07/01 00:59:07;;;;;;;1.45;0.38;;;16.80;70.60;;;;;;5091537;28;20024;-77
2021/07/01 01:01:33;;;;;;;1.88;0.50;;;16.90;70.40;;;;;;5095230;28;20020;-77
2021/07/01 01:03:59;;;;;;;3.47;0.63;;;16.90;69.90;;;;;;5095303;28;20078;-77
2021/07/01 01:06:26;;;;;;;0.90;0.50;;;17.00;69.90;;;;;;5093903;28;20504;-77
2021/07/01 01:08:53;;;;;;;1.33;0.68;;;17.00;69.60;;;;;;5095305;28;20020;-77
2021/07/01 01:11:23;;;;;;;6.47;0.70;;;17.10;69.60;;;;;;5093815;28;20024;-77
2021/07/01 01:13:51;;;;;;;2.25;0.52;;;17.10;69.60;;;;;;5095319;28;20016;-77
2021/07/01 01:16:18;;;;;;;0.75;0.50;;;17.20;69.70;;;;;;5087175;28;20078;-77
2021/07/01 01:18:45;;;;;;;1.38;0.40;;;17.20;69.30;;;;;;5074978;28;20032;-78
2021/07/01 01:21:31;;;;;;;0.65;0.50;;;17.30;69.30;;;;;;5090800;28;20028;-77
2021/07/01 01:24:00;;;;;;;1.58;0.70;;;17.30;69.10;;;;;;5075793;28;20445;-78
2021/07/01 01:26:26;;;;;;;2.92;0.77;;;17.30;68.90;;;;;;5074181;28;20025;-77
2021/07/01 01:28:53;;;;;;;2.03;0.60;;;17.30;68.70;;;;;;5090170;28;20389;-76
2021/07/01 01:31:19;;;;;;;2.50;0.90;;;17.30;68.30;;;;;;5073311;28;20491;-77
2021/07/01 01:33:45;;;;;;;1.38;0.85;;;17.30;68.10;;;;;;5080788;28;20096;-77
2021/07/01 01:36:11;;;;;;;2.08;1.00;;;17.30;68.10;;;;;;5086613;28;20024;-77
2021/07/01 01:38:36;;;;;;;1.55;1.13;;;17.40;68.10;;;;;;5081798;28;20039;-77
2021/07/01 01:41:03;;;;;;;0.75;0.75;;;17.30;68.10;;;;;;5094587;28;20085;-77
2021/07/01 01:43:28;;;;;;;0.93;0.82;;;17.40;68.40;;;;;;5094713;28;20107;-77
2021/07/01 01:45:55;;;;;;;1.13;0.80;;;17.40;68.50;;;;;;5093204;28;20153;-77
2021/07/01 01:48:22;;;;;;;1.52;0.82;;;17.40;69.40;;;;;;5093747;28;20515;-77
2021/07/01 01:50:48;;;;;;;9.23;1.05;;;17.50;69.20;;;;;;5078057;28;20094;-77
2021/07/01 01:53:14;;;;;;;1.85;1.30;;;17.50;68.40;;;;;;5072325;28;20042;-77
2021/07/01 01:55:40;;;;;;;2.22;1.17;;;17.50;68.70;;;;;;5086984;28;20099;-77
2021/07/01 01:58:07;;;;;;;3.00;0.88;;;17.50;68.80;;;;;;5093735;28;20028;-77
2021/07/01 02:00:33;;;;;;;0.80;0.70;;;17.50;67.90;;;;;;5083800;28;20020;-78
2021/07/01 02:03:00;;;;;;;1.50;0.82;;;17.50;67.90;;;;;;5072806;28;20025;-77
2021/07/01 02:05:27;;;;;;;1.45;0.93;;;17.40;67.50;;;;;;5074827;28;20028;-76
2021/07/01 02:07:53;;;;;;;0.63;0.63;;;17.40;67.80;;;;;;5094163;28;20024;-77
2021/07/01 02:10:21;;;;;;;1.13;1.00;;;17.40;68.50;;;;;;5093727;28;20431;-76
2021/07/01 02:12:48;;;;;;;2.25;1.00;;;17.40;68.40;;;;;;5093189;28;20028;-77
2021/07/01 02:15:16;;;;;;;3.65;1.30;;;17.40;68.10;;;;;;5083798;28;20413;-77
2021/07/01 02:17:42;;;;;;;1.52;0.80;;;17.40;68.50;;;;;;5073753;28;20048;-78
2021/07/01 02:20:14;;;;;;;0.70;0.70;;;17.40;68.90;;;;;;5073548;28;20150;-77
2021/07/01 02:22:40;;;;;;;1.80;0.93;;;17.40;68.30;;;;;;5073605;28;20052;-77
2021/07/01 02:25:07;;;;;;;2.28;1.52;;;17.50;68.80;;;;;;5080718;28;20055;-77
2021/07/01 02:27:34;;;;;;;1.85;0.80;;;17.50;68.80;;;;;;5085416;28;20481;-76
2021/07/01 02:30:00;;;;;;;0.80;0.77;;;17.50;68.80;;;;;;5073842;28;20025;-76
2021/07/01 02:32:26;;;;;;;3.78;0.82;;;17.60;68.50;;;;;;5072086;28;20031;-76
2021/07/01 02:34:52;;;;;;;2.53;0.70;;;17.60;68.30;;;;;;5073387;28;20025;-77
2021/07/01 02:37:19;;;;;;;2.58;0.90;;;17.60;68.80;;;;;;5076311;28;20043;-77
2021/07/01 02:39:46;;;;;;;1.33;0.75;;;17.60;68.80;;;;;;5092311;28;20024;-77
2021/07/01 02:42:12;;;;;;;0.65;0.50;;;17.70;68.90;;;;;;5093565;28;20103;-77
2021/07/01 02:44:37;;;;;;;0.65;0.50;;;17.80;68.70;;;;;;5093173;28;20035;-77
2021/07/01 02:47:03;;;;;;;0.88;0.52;;;17.80;68.90;;;;;;5093435;28;20031;-76
2021/07/01 02:49:29;;;;;;;1.05;0.43;;;17.80;69.70;;;;;;5092500;28;20130;-77
2021/07/01 02:51:55;;;;;;;4.10;0.70;;;17.90;68.50;;;;;;5073699;28;20409;-76
2021/07/01 02:54:21;;;;;;;2.83;0.90;;;17.90;68.30;;;;;;5087320;28;20032;-78
2021/07/01 02:56:48;;;;;;;0.73;0.68;;;17.90;67.40;;;;;;5091765;28;20099;-78
2021/07/01 02:59:16;;;;;;;12.80;2.03;;;17.90;68.10;;;;;;5091799;28;20470;-78
2021/07/01 03:01:43;;;;;;;10.25;1.85;;;18.00;68.20;;;;;;5077718;28;20520;-77
2021/07/01 03:04:09;;;;;;;10.63;1.92;;;18.00;68.20;;;;;;5087264;28;20088;-77
2021/07/01 03:06:35;;;;;;;6.15;2.13;;;18.10;68.30;;;;;;5081702;28;20050;-77
2021/07/01 03:09:02;;;;;;;12.77;2.97;;;18.10;68.50;;;;;;5072668;28;20036;-77
2021/07/01 03:11:28;;;;;;;5.80;2.03;;;18.10;67.10;;;;;;5071387;28;20397;-77
2021/07/01 03:13:54;;;;;;;6.45;2.00;;;18.10;66.70;;;;;;5072626;28;20024;-78
2021/07/01 03:16:20;;;;;;;2.38;1.77;;;18.10;67.30;;;;;;5072191;28;20020;-77
2021/07/01 03:18:51;;;;;;;6.10;2.08;;;18.20;67.30;;;;;;5072549;28;20016;-77
2021/07/01 03:21:18;;;;;;;3.65;2.00;;;18.20;67.10;;;;;;5075097;28;20016;-77
2021/07/01 03:23:44;;;;;;;2.17;1.90;;;18.20;66.80;;;;;;5091367;28;20452;-77
2021/07/01 03:26:11;;;;;;;6.97;2.58;;;18.20;66.90;;;;;;5092524;28;20024;-77
2021/07/01 03:28:40;;;;;;;5.43;1.92;;;18.20;67.20;;;;;;5075647;28;20582;-77
2021/07/01 03:31:07;;;;;;;4.93;2.55;;;18.20;67.40;;;;;;5072430;28;20017;-77
2021/07/01 03:33:33;;;;;;;10.05;2.50;;;18.30;67.50;;;;;;5072224;28;20078;-76
2021/07/01 03:36:00;;;;;;;3.33;2.25;;;18.30;67.80;;;;;;5075240;28;20509;-77
2021/07/01 03:38:26;;;;;;;2.85;2.20;;;18.30;68.10;;;;;;5075048;28;20023;-77
2021/07/01 03:40:55;;;;;;;2.72;1.98;;;18.30;68.20;;;;;;5091155;28;20032;-76
2021/07/01 03:43:21;;;;;;;5.07;2.42;;;18.40;68.10;;;;;;5093329;28;20024;-78
2021/07/01 03:45:47;;;;;;;2.92;2.45;;;18.40;67.70;;;;;;5093181;28;20031;-78
2021/07/01 03:48:13;;;;;;;4.82;2.42;;;18.50;66.80;;;;;;5093285;28;20020;-77
2021/07/01 03:50:40;;;;;;;3.92;2.13;;;18.50;67.50;;;;;;5085140;28;20048;-78
2021/07/01 03:53:06;;;;;;;3.40;2.33;;;18.50;67.60;;;;;;5081576;28;20525;-77
2021/07/01 03:55:34;;;;;;;3.15;2.22;;;18.60;67.00;;;;;;5087953;28;20055;-77
2021/07/01 03:58:00;;;;;;;3.33;2.53;;;18.60;67.10;;;;;;5072453;28;20019;-77
2021/07/01 04:00:26;;;;;;;2.60;2.40;;;18.60;66.80;;;;;;5072898;28;20445;-77
2021/07/01 04:02:52;;;;;;;4.22;2.45;;;18.70;67.30;;;;;;5071550;28;20031;-77
2021/07/01 04:05:17;;;;;;;2.40;2.00;;;18.70;66.50;;;;;;5073464;28;20017;-78
2021/07/01 04:07:43;;;;;;;2.80;2.15;;;18.70;66.50;;;;;;5093026;28;20027;-78
2021/07/01 04:10:12;;;;;;;5.00;1.77;;;18.80;66.70;;;;;;5092873;28;20101;-77
2021/07/01 04:12:38;;;;;;;6.65;2.38;;;18.80;66.30;;;;;;5092886;28;20020;-77
2021/07/01 04:15:08;;;;;;;3.30;1.88;;;18.80;66.70;;;;;;5092828;28;20020;-77
2021/07/01 04:17:35;;;;;;;3.85;1.80;;;18.80;65.20;;;;;;5092847;28;20047;-77
2021/07/01 04:20:00;;;;;;;1.75;1.45;;;18.80;65.60;;;;;;5090790;28;20020;-77
2021/07/01 04:22:26;;;;;;;1.92;1.33;;;18.90;65.10;;;;;;5092815;28;20612;-77
2021/07/01 04:24:52;;;;;;;3.15;1.67;;;18.80;64.80;;;;;;5092736;28;20028;-77
2021/07/01 04:27:19;;;;;;;1.23;1.00;;;18.90;65.60;;;;;;5090958;28;20106;-77
2021/07/01 04:29:45;;;;;;;1.90;1.13;;;18.90;66.00;;;;;;5092588;28;20020;-77
2021/07/01 04:32:11;;;;;;;2.55;1.42;;;18.90;65.80;;;;;;5074721;28;20478;-77
2021/07/01 04:34:38;;;;;;;1.85;1.48;;;18.90;65.70;;;;;;5088623;28;20035;-77
2021/07/01 04:37:04;;;;;;;1.30;1.20;;;18.90;65.90;;;;;;5080386;28;20032;-77
2021/07/01 04:39:30;;;;;;;1.63;1.30;;;19.00;66.60;;;;;;5076959;28;20048;-77
2021/07/01 04:41:56;;;;;;;1.58;1.40;;;19.00;65.40;;;;;;5075559;28;20365;-77
2021/07/01 04:44:22;;;;;;;3.25;1.48;;;19.00;65.70;;;;;;5075470;28;20032;-78
2021/07/01 04:46:48;;;;;;;5.75;1.25;;;19.00;66.10;;;;;;5096268;28;20028;-77
2021/07/01 04:49:13;;;;;;;3.05;1.20;;;19.00;65.60;;;;;;5095888;28;20107;-77
2021/07/01 04:51:39;;;;;;;1.60;1.10;;;19.10;65.30;;;;;;5095798;28;20375;-77
2021/07/01 04:54:05;;;;;;;1.30;1.20;;;19.10;65.80;;;;;;5082039;28;20509;-76
2021/07/01 04:56:43;;;;;;;1.70;0.90;;;19.10;65.30;;;;;;5076427;28;20462;-77
2021/07/01 04:59:14;;;;;;;1.50;0.80;;;19.10;64.80;;;;;;5075874;28;20024;-78
2021/07/01 05:01:40;;;;;;;2.25;1.23;;;19.10;65.50;;;;;;5075979;28;20070;-77
2021/07/01 05:04:07;;;;;;;1.55;0.90;;;19.10;64.70;;;;;;5074710;28;20074;-77
2021/07/01 05:06:37;;;;;;;1.00;0.90;;;19.10;65.10;;;;;;5076418;28;20061;-76
2021/07/01 05:09:05;;;;;;;2.30;0.90;;;19.10;65.80;;;;;;5088857;28;20034;-78
2021/07/01 05:11:31;;;;;;;1.00;0.80;;;19.20;65.30;;;;;;5095668;28;20025;-77
2021/07/01 05:13:57;;;;;;;1.05;0.73;;;19.20;65.60;;;;;;5095918;28;20030;-75
2021/07/01 05:16:23;;;;;;;1.10;0.73;;;19.20;65.60;;;;;;5096068;28;20141;-75
2021/07/01 05:18:49;;;;;;;3.75;0.98;;;19.30;66.40;;;;;;5095843;28;20024;-78
2021/07/01 05:21:15;;;;;;;1.45;0.50;;;19.30;65.20;;;;;;5094603;28;20051;-75
2021/07/01 05:23:41;;;;;;;1.63;0.90;;;19.30;65.40;;;;;;5078059;28;20063;-75
2021/07/01 05:26:06;;;;;;;1.30;0.70;;;19.30;64.20;;;;;;5074549;28;20532;-76
2021/07/01 05:28:32;;;;;;;1.58;0.70;;;19.30;63.30;;;;;;5075415;28;20035;-75
2021/07/01 05:30:58;;;;;;;0.98;0.68;;;19.40;63.80;;;;;;5074057;28;20043;-75
2021/07/01 05:33:24;;;;;;;2.05;1.40;;;19.40;64.60;;;;;;5075082;28;20021;-76
2021/07/01 05:35:49;;;;;;;1.23;0.77;;;19.40;63.40;;;;;;5086180;28;20029;-75
2021/07/01 05:38:15;;;;;;;0.85;0.60;;;19.40;64.10;;;;;;5077301;28;20024;-76
2021/07/01 05:40:41;;;;;;;2.53;0.80;;;19.40;64.60;;;;;;5095495;28;20043;-76
2021/07/01 05:43:08;;;;;;;4.85;0.65;;;19.50;63.70;;;;;;5095151;28;20168;-75
2021/07/01 05:45:34;;;;;;;2.45;1.15;;;19.50;63.60;;;;;;5092098;28;20470;-75
2021/07/01 05:48:00;;;;;;;1.42;0.70;;;19.50;63.70;;;;;;5079542;28;20032;-75
2021/07/01 05:50:26;;;;;;;1.40;0.93;;;19.60;64.00;;;;;;5089111;28;20043;-76
2021/07/01 05:52:57;;;;;;;0.77;0.60;;;19.60;63.20;;;;;;5079176;28;20025;-76
2021/07/01 05:55:23;;;;;;;0.85;0.43;;;19.60;63.80;;;;;;5093909;28;20030;-75
2021/07/01 05:57:49;;;;;;;3.20;0.65;;;19.60;63.00;;;;;;5093038;28;20029;-76
2021/07/01 06:00:17;;;;;;;1.35;0.80;;;19.70;63.20;;;;;;5093373;28;20031;-76
2021/07/01 06:02:47;;;;;;;1.75;0.60;;;19.60;62.50;;;;;;5094208;28;20098;-75
2021/07/01 06:05:13;;;;;;;3.65;0.80;;;19.70;62.30;;;;;;5086016;28;20029;-77
2021/07/01 06:07:45;;;;;;;1.70;0.50;;;19.70;62.30;;;;;;5095413;28;20020;-75
2021/07/01 06:10:16;;;;;;;1.25;0.45;;;19.90;63.10;;;;;;5091016;28;20037;-74
2021/07/01 06:12:42;;;;;;;0.57;0.40;;;20.00;62.40;;;;;;5078273;28;20064;-74
2021/07/01 06:15:08;;;;;;;0.40;0.40;;;20.20;63.60;;;;;;5087596;28;20103;-74
2021/07/01 06:17:34;;;;;;;1.45;0.50;;;20.40;61.30;;;;;;5074704;28;20025;-74
2021/07/01 06:20:03;;;;;;;0.50;0.20;;;20.50;61.80;;;;;;5082731;28;20021;-74
2021/07/01 06:22:30;;;;;;;1.17;0.52;;;20.60;61.40;;;;;;5094009;28;20032;-75
2021/07/01 06:24:57;;;;;;;0.77;0.40;;;20.80;61.00;;;;;;5094195;28;20033;-75
2021/07/01 06:27:32;;;;;;;0.88;0.32;;;20.90;59.60;;;;;;5086678;28;20031;-74
2021/07/01 06:30:00;;;;;;;1.98;0.60;;;21.00;60.60;;;;;;5094139;28;20031;-75
2021/07/01 06:32:25;;;;;;;0.57;0.30;;;21.10;59.40;;;;;;5080879;28;20024;-75
2021/07/01 06:34:51;;;;;;;1.10;0.60;;;21.20;58.00;;;;;;5094093;28;20046;-74
2021/07/01 06:37:17;;;;;;;0.60;0.50;;;21.20;57.50;;;;;;5089552;28;20449;-76
2021/07/01 06:39:46;;;;;;;0.55;0.45;;;21.20;58.50;;;;;;5093666;28;20052;-74
2021/07/01 06:42:14;;;;;;;2.13;0.75;;;21.20;58.80;;;;;;5094281;28;20036;-75
2021/07/01 06:44:41;;;;;;;0.65;0.38;;;21.20;60.30;;;;;;5093533;28;20078;-74
2021/07/01 06:47:09;;;;;;;0.80;0.50;;;21.20;59.00;;;;;;5086339;28;20020;-75
2021/07/01 06:49:37;;;;;;;1.77;0.47;;;21.30;60.30;;;;;;5082950;28;20107;-74
2021/07/01 06:52:06;;;;;;;1.58;1.05;;;21.20;60.00;;;;;;5085393;28;20120;-74
2021/07/01 06:54:31;;;;;;;0.77;0.60;;;21.30;61.00;;;;;;5083366;28;20028;-74
2021/07/01 06:56:58;;;;;;;1.10;0.60;;;21.30;61.00;;;;;;5082278;28;20035;-74
2021/07/01 06:59:24;;;;;;;1.17;0.77;;;21.40;61.30;;;;;;5094025;28;20066;-74
2021/07/01 07:01:50;;;;;;;0.50;0.50;;;21.50;61.70;;;;;;5076665;28;20021;-75
2021/07/01 07:04:18;;;;;;;0.73;0.35;;;21.50;59.60;;;;;;5080120;28;20028;-74
2021/07/01 07:06:45;;;;;;;3.45;0.73;;;21.60;60.30;;;;;;5091978;28;20031;-75
2021/07/01 07:09:15;;;;;;;1.77;0.80;;;21.70;61.10;;;;;;5090409;28;20016;-74
2021/07/01 07:11:42;;;;;;;1.17;0.52;;;21.70;59.10;;;;;;5089178;28;20382;-70
2021/07/01 07:14:08;;;;;;;2.53;0.85;;;21.80;59.90;;;;;;5093761;28;20024;-75
2021/07/01 07:16:40;;;;;;;1.35;0.60;;;21.90;57.50;;;;;;5086317;28;20028;-76
2021/07/01 07:19:08;;;;;;;1.50;0.60;;;21.90;58.20;;;;;;5080980;28;20064;-74
2021/07/01 07:21:38;;;;;;;0.40;0.40;;;21.90;57.90;;;;;;5072188;28;20099;-75
2021/07/01 07:24:04;;;;;;;0.85;0.40;;;21.90;57.70;;;;;;5073298;28;20064;-76
2021/07/01 07:26:30;;;;;;;1.27;0.52;;;21.80;57.30;;;;;;5072709;28;20020;-75
2021/07/01 07:28:57;;;;;;;1.27;0.40;;;21.80;57.60;;;;;;5073247;28;20418;-75
2021/07/01 07:31:28;;;;;;;7.30;0.80;;;21.80;58.20;;;;;;5072971;28;20470;-76
2021/07/01 07:33:56;;;;;;;0.70;0.70;;;21.70;58.00;;;;;;5071918;28;20359;-75
2021/07/01 07:36:24;;;;;;;1.75;0.50;;;21.70;58.40;;;;;;5072970;28;20012;-75
2021/07/01 07:38:55;;;;;;;1.33;0.60;;;21.80;58.30;;;;;;5077577;28;20020;-75
2021/07/01 07:41:22;;;;;;;0.75;0.40;;;21.80;57.70;;;;;;5093199;28;20103;-75
2021/07/01 07:43:49;;;;;;;0.95;0.40;;;21.70;58.60;;;;;;5093174;28;20028;-76
2021/07/01 07:46:20;;;;;;;0.73;0.40;;;21.70;58.00;;;;;;5093137;28;20538;-76
2021/07/01 07:48:46;;;;;;;0.52;0.40;;;21.70;58.80;;;;;;5093219;28;20028;-75
2021/07/01 07:51:16;;;;;;;1.75;0.60;;;21.80;59.20;;;;;;5089029;28;20040;-77
2021/07/01 07:53:46;;;;;;;1.20;0.50;;;21.90;58.00;;;;;;5075403;28;20020;-75
2021/07/01 07:56:14;;;;;;;0.80;0.50;;;21.90;57.20;;;;;;5072709;28;20048;-75
2021/07/01 07:58:43;;;;;;;0.70;0.70;;;22.00;57.70;;;;;;5071111;28;20096;-76
2021/07/01 08:01:10;;;;;;;1.05;0.40;;;22.00;57.80;;;;;;5072734;28;20039;-75
2021/07/01 08:03:42;;;;;;;1.95;1.00;;;22.10;58.30;;;;;;5072709;28;20624;-75
2021/07/01 08:06:09;;;;;;;1.90;0.80;;;22.20;57.60;;;;;;5072779;28;20056;-75
2021/07/01 08:08:42;;;;;;;1.30;0.70;;;22.30;59.20;;;;;;5075770;28;20486;-76
2021/07/01 08:11:09;;;;;;;1.15;0.50;;;22.30;57.80;;;;;;5077151;28;20030;-75
2021/07/01 08:13:37;;;;;;;0.73;0.45;;;22.50;58.40;;;;;;5076863;28;20142;-76
2021/07/01 08:16:05;;;;;;;0.90;0.50;;;22.60;59.00;;;;;;5075525;28;20513;-75
2021/07/01 08:18:39;;;;;;;2.05;1.05;;;22.70;56.90;;;;;;5076737;28;20024;-76
2021/07/01 08:21:05;;;;;;;;;;;22.70;55.90;;;;;;5075896;28;20047;-75
2021/07/01 08:23:33;;;;;;;0.68;0.38;;;22.80;58.00;;;;;;5077997;28;19904;-76
2021/07/01 08:26:01;;;;;;;1.67;0.52;;;22.90;56.00;;;;;;5075319;28;20025;-76
2021/07/01 08:28:28;;;;;;;1.30;0.55;;;22.90;56.00;;;;;;5076461;28;20025;-75
2021/07/01 08:30:57;;;;;;;0.85;0.50;;;22.90;56.90;;;;;;5076384;28;20021;-75
2021/07/01 08:33:27;;;;;;;0.50;0.50;;;22.90;55.20;;;;;;5076345;28;20017;-75
2021/07/01 08:35:56;;;;;;;0.75;0.50;;;23.00;55.00;;;;;;5076533;28;20066;-75
2021/07/01 08:38:22;;;;;;;0.43;0.43;;;23.10;56.40;;;;;;5077115;28;20017;-75
2021/07/01 08:40:50;;;;;;;1.70;0.50;;;23.10;56.30;;;;;;5078178;28;20070;-76
2021/07/01 08:43:19;;;;;;;1.33;0.57;;;23.20;56.00;;;;;;5081308;28;20470;-74
2021/07/01 08:46:11;;;;;;;0.50;0.50;;;23.20;54.30;;;;;;5080725;28;20024;-76
2021/07/01 08:48:55;;;;;;;2.35;0.60;;;23.20;54.80;;;;;;5076964;28;20029;-75
2021/07/01 08:51:26;;;;;;;;;;;23.20;54.50;;;;;;5075222;28;20055;-76
2021/07/01 08:54:25;;;;;;;0.30;0.30;;;23.30;56.80;;;;;;5076318;28;20278;-76
2021/07/01 08:56:53;;;;;;;0.60;0.60;;;23.30;55.30;;;;;;5075986;28;20078;-75
2021/07/01 08:59:21;;;;;;;0.57;0.40;;;23.40;54.20;;;;;;5075301;28;20047;-74
2021/07/01 09:02:08;;;;;;;0.50;0.50;;;23.40;52.90;;;;;;5081005;28;20034;-75
2021/07/01 09:04:48;;;;;;;0.73;0.50;;;23.40;53.80;;;;;;5078805;28;20082;-75
2021/07/01 09:07:21;;;;;;;1.08;0.60;;;23.40;53.50;;;;;;5078554;28;20170;-74
2021/07/01 09:09:57;;;;;;;9.35;5.50;;;23.50;54.10;;;;;;5076382;28;20032;-75
2021/07/01 09:12:26;;;;;;;2.80;1.20;;;23.60;54.20;;;;;;5075814;28;20035;-74
2021/07/01 09:15:04;;;;;;;1.00;0.70;;;23.70;53.90;;;;;;5075925;28;20024;-74
2021/07/01 09:17:33;;;;;;;1.30;0.70;;;23.80;55.00;;;;;;5084081;28;20027;-75
2021/07/01 09:20:00;;;;;;;0.80;0.70;;;23.80;53.90;;;;;;5094604;28;20552;-76
2021/07/01 09:22:28;;;;;;;0.28;0.25;;;23.80;55.70;;;;;;5096184;28;20470;-75
2021/07/01 09:24:55;;;;;;;1.90;0.50;;;23.90;53.70;;;;;;5096024;28;20477;-75
2021/07/01 09:27:23;;;;;;;0.80;0.47;;;23.90;54.50;;;;;;5096180;28;20354;-74
2021/07/01 09:29:50;;;;;;;0.95;0.70;;;24.00;54.10;;;;;;5095818;28;20020;-77
2021/07/01 09:32:18;;;;;;;0.55;0.52;;;24.00;55.40;;;;;;5094136;28;20031;-76
2021/07/01 09:34:45;;;;;;;3.80;0.60;;;24.00;54.20;;;;;;5094375;28;20026;-76
2021/07/01 09:37:11;;;;;;;1.45;0.50;;;24.10;55.40;;;;;;5095601;28;20476;-76
2021/07/01 09:39:38;;;;;;;0.63;0.63;;;24.20;55.80;;;;;;5082890;28;20033;-76
2021/07/01 09:42:05;;;;;;;1.42;0.68;;;24.30;54.90;;;;;;5075181;28;20032;-76
2021/07/01 09:44:34;;;;;;;0.50;0.50;;;24.50;54.90;;;;;;5088921;28;20032;-76
2021/07/01 09:47:01;;;;;;;0.50;0.50;;;24.60;53.10;;;;;;5095194;28;20412;-75
2021/07/01 09:49:31;;;;;;;1.30;0.70;;;24.70;53.40;;;;;;5095353;28;20500;-75
2021/07/01 09:52:00;;;;;;;2.88;0.70;;;24.70;52.70;;;;;;5092494;28;20054;-77
2021/07/01 09:54:31;;;;;;;2.92;0.88;;;24.70;51.90;;;;;;5090091;28;20028;-76
2021/07/01 09:57:00;;;;;;;0.77;0.60;;;24.70;51.30;;;;;;5094338;28;20044;-75
2021/07/01 09:59:30;;;;;;;1.75;0.77;;;24.70;53.70;;;;;;5091843;28;20028;-76
2021/07/01 10:02:14;;;;;;;1.70;0.70;;;24.60;51.60;;;;;;5086111;28;20501;-77
2021/07/01 10:04:45;;;;;;;0.98;0.90;;;24.60;53.30;;;;;;5074890;28;20039;-76
2021/07/01 10:07:12;;;;;;;6.32;0.60;;;24.50;53.40;;;;;;5074906;28;20021;-76
2021/07/01 10:09:37;;;;;;;2.00;0.63;;;24.40;52.00;;;;;;5076512;28;20024;-75
2021/07/01 10:12:14;;;;;;;1.73;0.70;;;24.30;55.90;;;;;;5074763;28;20028;-74
2021/07/01 10:14:40;;;;;;;1.17;0.90;;;24.10;54.10;;;;;;5074642;28;20048;-74
2021/07/01 10:17:15;;;;;;;3.03;0.60;;;23.90;55.30;;;;;;5073290;28;20024;-74
2021/07/01 10:19:42;;;;;;;1.25;0.88;;;23.60;54.00;;;;;;5076282;28;20025;-75
2021/07/01 10:22:09;;;;;;;0.95;0.50;;;23.50;54.70;;;;;;5093110;28;20028;-74
2021/07/01 10:24:48;;;;;;;0.80;0.70;;;23.50;55.10;;;;;;5089714;28;20021;-74
2021/07/01 10:27:34;;;;;;;2.72;0.88;;;23.60;55.80;;;;;;5074293;28;20108;-75
2021/07/01 10:30:11;;;;;;;0.75;0.70;;;23.60;54.50;;;;;;5072800;28;20021;-75
2021/07/01 10:32:42;;;;;;;1.13;0.73;;;23.60;55.40;;;;;;5073937;28;20056;-76
2021/07/01 10:35:35;;;;;;;0.60;0.60;;;23.60;54.00;;;;;;5074103;28;20419;-75
2021/07/01 10:38:04;;;;;;;0.65;0.65;;;23.60;54.80;;;;;;5074188;28;20024;-75
2021/07/01 10:40:34;;;;;;;1.55;0.50;;;23.50;54.40;;;;;;5079592;28;20030;-74
2021/07/01 10:43:00;;;;;;;2.38;1.10;;;23.40;53.70;;;;;;5090715;28;20020;-75
2021/07/01 10:45:26;;;;;;;2.75;0.55;;;23.30;52.90;;;;;;5089952;28;20027;-75
2021/07/01 10:47:54;;;;;;;0.45;0.43;;;23.20;53.90;;;;;;5084816;28;20481;-74
2021/07/01 10:50:22;;;;;;;1.25;0.70;;;23.00;53.60;;;;;;5091422;28;20043;-74
2021/07/01 10:52:48;;;;;;;2.00;0.90;;;23.00;55.40;;;;;;5094116;28;20028;-75
2021/07/01 10:55:16;;;;;;;1.50;0.70;;;22.90;55.40;;;;;;5079414;28;20025;-74
2021/07/01 10:57:56;;;;;;;3.25;0.90;;;22.80;55.10;;;;;;5073128;28;20078;-75
2021/07/01 11:00:38;;;;;;;1.13;0.80;;;22.70;56.00;;;;;;5073525;28;20051;-74
2021/07/01 11:03:04;;;;;;;0.95;0.80;;;22.70;55.70;;;;;;5073586;28;20099;-75
2021/07/01 11:05:35;;;;;;;1.70;0.80;;;22.60;57.10;;;;;;5084794;28;20028;-75
2021/07/01 11:08:01;;;;;;;1.00;0.95;;;22.60;58.20;;;;;;5081141;28;20020;-74
2021/07/01 11:10:36;;;;;;;3.40;1.00;;;22.60;59.10;;;;;;5078324;28;20465;-76
2021/07/01 11:13:09;;;;;;;1.55;0.90;;;22.70;59.00;;;;;;5072641;28;20044;-75
2021/07/01 11:16:07;;;;;;;1.52;0.95;;;22.70;59.30;;;;;;5076602;28;20050;-76
2021/07/01 11:18:44;;;;;;;1.88;0.98;;;22.90;58.80;;;;;;5093499;28;20020;-74
2021/07/01 11:21:18;;;;;;;1.05;0.70;;;23.10;58.70;;;;;;5106068;28;20031;-74
2021/07/01 11:23:50;;;;;;;1.23;0.90;;;23.30;58.40;;;;;;5081121;28;20120;-74
2021/07/01 11:26:23;;;;;;;3.00;1.05;;;23.40;58.10;;;;;;5081471;28;20020;-74
2021/07/01 11:28:50;;;;;;;1.73;1.02;;;23.50;58.10;;;;;;5092650;28;20060;-74
2021/07/01 11:31:16;;;;;;;1.02;0.57;;;23.60;57.70;;;;;;5093069;28;20027;-74
2021/07/01 11:33:51;;;;;;;0.75;0.60;;;23.70;55.60;;;;;;5093121;28;20047;-74
2021/07/01 11:36:19;;;;;;;2.30;1.00;;;23.60;56.80;;;;;;5073219;28;20035;-74
2021/07/01 11:38:46;;;;;;;1.48;0.88;;;23.60;59.30;;;;;;5073115;28;20535;-75
2021/07/01 11:41:14;;;;;;;0.70;0.70;;;23.50;58.20;;;;;;5072695;28;20028;-74
2021/07/01 11:43:41;;;;;;;0.85;0.68;;;23.30;58.30;;;;;;5072267;28;20031;-74
2021/07/01 11:46:07;;;;;;;1.20;0.90;;;23.20;58.90;;;;;;5084468;28;20058;-74
2021/07/01 11:48:34;;;;;;;1.67;0.98;;;23.10;58.60;;;;;;5090252;28;20067;-73
2021/07/01 11:51:05;;;;;;;4.10;1.95;;;23.00;59.40;;;;;;5080881;28;20036;-74
2021/07/01 11:53:31;;;;;;;1.27;0.93;;;23.00;60.70;;;;;;5086151;28;20148;-74
2021/07/01 11:56:00;;;;;;;0.73;0.52;;;23.20;62.50;;;;;;5070173;28;20426;-75
2021/07/01 11:58:26;;;;;;;2.95;1.20;;;23.30;62.60;;;;;;5071281;28;20013;-75
2021/07/01 12:00:54;;;;;;;4.75;0.80;;;23.30;59.30;;;;;;5071129;28;20031;-75
2021/07/01 12:03:21;;;;;;;3.65;0.80;;;23.40;61.00;;;;;;5081345;28;20024;-75
2021/07/01 12:05:53;;;;;;;1.10;0.75;;;23.50;60.20;;;;;;5074593;28;20497;-75
2021/07/01 12:08:19;;;;;;;1.17;0.68;;;23.50;60.60;;;;;;5084093;28;20050;-74
2021/07/01 12:10:45;;;;;;;0.82;0.60;;;23.60;60.30;;;;;;5090706;28;20028;-76
2021/07/01 12:13:38;;;;;;;1.70;0.90;;;23.60;58.80;;;;;;5090681;28;20095;-74
2021/07/01 12:16:15;;;;;;;2.10;1.10;;;23.60;59.20;;;;;;5078502;28;20502;-76
2021/07/01 12:18:44;;;;;;;3.65;0.90;;;23.50;58.60;;;;;;5084446;28;20047;-75
2021/07/01 12:21:17;;;;;;;1.05;0.80;;;23.50;59.10;;;;;;5091673;28;20091;-76
2021/07/01 12:23:48;;;;;;;3.85;0.80;;;23.40;58.90;;;;;;5090498;28;20024;-76
2021/07/01 12:26:31;;;;;;;1.80;0.88;;;23.40;59.30;;;;;;5091299;28;20032;-75
2021/07/01 12:28:58;;;;;;;1.48;0.85;;;23.50;60.40;;;;;;5089687;28;20637;-74
2021/07/01 12:31:25;;;;;;;1.33;1.00;;;23.60;60.80;;;;;;5090938;28;20113;-75
2021/07/01 12:33:57;;;;;;;1.15;0.70;;;23.80;60.80;;;;;;5091270;28;20028;-74
2021/07/01 12:36:24;;;;;;;2.22;0.90;;;23.90;60.70;;;;;;5090831;28;20024;-74
2021/07/01 12:39:05;;;;;;;3.53;1.05;;;24.00;60.20;;;;;;5085462;28;20016;-76
2021/07/01 12:41:36;;;;;;;1.52;1.02;;;24.00;58.10;;;;;;5091456;28;20514;-74
2021/07/01 12:44:17;;;;;;;1.83;0.90;;;24.00;58.90;;;;;;5089978;28;20055;-74
2021/07/01 12:46:43;;;;;;;0.70;0.60;;;23.90;59.00;;;;;;5088360;28;20544;-74
2021/07/01 12:49:15;;;;;;;1.08;0.98;;;23.90;58.80;;;;;;5090148;28;20111;-76
2021/07/01 12:51:44;;;;;;;1.08;0.80;;;24.00;58.30;;;;;;5088992;28;20044;-75
2021/07/01 12:54:36;;;;;;;1.17;0.70;;;23.90;57.90;;;;;;5092576;28;20073;-74